createdAt,value
2023-02-14T00:01:52.119Z,99459.95
2023-02-14T00:04:20.736Z,99466.89
2023-02-14T00:06:52.809Z,99466.33
2023-02-14T00:09:21.419Z,99465.81
2023-02-14T00:11:55.002Z,99464.83
2023-02-14T00:14:42.960Z,99453.07
2023-02-14T00:17:11.307Z,99466.58
2023-02-14T00:19:39.997Z,99451.36
2023-02-14T00:22:08.497Z,99469.80
2023-02-14T00:24:38.084Z,99471.79
2023-02-14T00:27:07.205Z,99461.26
2023-02-14T00:29:35.680Z,99458.91
2023-02-14T00:32:04.458Z,99474.05
2023-02-14T00:34:33.744Z,99468.89
2023-02-14T00:37:03.539Z,99464.64
2023-02-14T00:39:32.251Z,99460.43
2023-02-14T00:42:01.386Z,99463.01
2023-02-14T00:44:30.024Z,99462.39
2023-02-14T00:46:59.219Z,99461.02
2023-02-14T00:49:27.734Z,99431.38
2023-02-14T00:51:56.283Z,99453.05
2023-02-14T00:54:25.893Z,99435.11
2023-02-14T00:56:54.294Z,99438.27
2023-02-14T00:59:22.655Z,99437.38
2023-02-14T01:01:51.652Z,99443.30
2023-02-14T01:04:20.134Z,99451.42
2023-02-14T01:06:48.805Z,99446.91
2023-02-14T01:09:17.388Z,99454.34
2023-02-14T01:11:46.387Z,99450.63
2023-02-14T01:14:16.913Z,99451.05
2023-02-14T01:16:45.421Z,99443.52
2023-02-14T01:19:14.197Z,99445.52
2023-02-14T01:21:45.232Z,99447.58
2023-02-14T01:24:14.044Z,99445.17
2023-02-14T01:26:45.044Z,99442.74
2023-02-14T01:29:13.836Z,99442.25
2023-02-14T01:31:42.475Z,99442.26
2023-02-14T01:34:11.001Z,99435.89
2023-02-14T01:36:41.025Z,99432.08
2023-02-14T01:39:14.575Z,99440.14
2023-02-14T01:41:43.520Z,99447.13
2023-02-14T01:44:14.990Z,99441.70
2023-02-14T01:46:44.673Z,99435.15
2023-02-14T01:49:15.002Z,99429.79
2023-02-14T01:51:46.550Z,99427.42
2023-02-14T01:54:14.908Z,99432.30
2023-02-14T01:56:49.864Z,99418.77
2023-02-14T01:59:21.252Z,99437.68
2023-02-14T02:01:50.616Z,99429.08
2023-02-14T02:04:22.447Z,99428.77
2023-02-14T02:07:01.990Z,99421.09
2023-02-14T02:09:42.688Z,99424.09
2023-02-14T02:12:11.059Z,99424.00
2023-02-14T02:14:39.352Z,99412.72
2023-02-14T02:17:32.813Z,99406.80
2023-02-14T02:20:24.673Z,99413.86
2023-02-14T02:23:21.695Z,99420.57
2023-02-14T02:33:46.833Z,99410.55
2023-02-14T02:36:41.529Z,99396.76
2023-02-14T02:39:12.672Z,99394.61
2023-02-14T02:42:07.187Z,99401.88
2023-02-14T02:44:57.208Z,99399.34
2023-02-14T02:47:25.644Z,99400.34
2023-02-14T02:50:51.356Z,99400.51
2023-02-14T02:53:33.388Z,99392.97
2023-02-14T02:56:41.818Z,99376.68
2023-02-14T02:59:20.920Z,99376.10
2023-02-14T03:02:17.851Z,99382.92
2023-02-14T03:04:56.063Z,99373.30
2023-02-14T03:07:39.301Z,99362.67
2023-02-14T03:10:14.727Z,99369.89
2023-02-14T03:13:01.735Z,99353.58
2023-02-14T03:16:08.534Z,99345.11
2023-02-14T03:19:02.914Z,99360.06
2023-02-14T03:21:48.621Z,99351.50
2023-02-14T03:24:20.038Z,99360.75
2023-02-14T03:27:07.363Z,99377.09
2023-02-14T03:29:43.281Z,99393.20
2023-02-14T03:32:15.809Z,99376.95
2023-02-14T03:35:10.411Z,99383.77
2023-02-14T03:37:52.266Z,99391.04
2023-02-14T03:40:43.005Z,99390.84
2023-02-14T03:43:15.753Z,99364.99
2023-02-14T03:45:57.211Z,99368.00
2023-02-14T03:48:25.639Z,99384.05
2023-02-14T03:50:54.218Z,99376.49
2023-02-14T03:53:25.763Z,99373.25
2023-02-14T03:56:08.480Z,99366.02
2023-02-14T03:58:45.342Z,99375.24
2023-02-14T04:01:22.206Z,99388.55
2023-02-14T04:03:51.073Z,99394.83
2023-02-14T04:06:19.925Z,99379.50
2023-02-14T04:08:49.052Z,99391.41
2023-02-14T04:11:23.429Z,99391.77
2023-02-14T04:13:53.131Z,99396.91
2023-02-14T04:16:21.579Z,99397.38
2023-02-14T04:19:09.345Z,99387.88
2023-02-14T04:21:38.158Z,99402.98
2023-02-14T04:24:07.233Z,99405.48
2023-02-14T04:26:35.819Z,99403.27
2023-02-14T04:29:04.508Z,99407.52
2023-02-14T04:31:34.691Z,99413.98
2023-02-14T04:34:03.404Z,99416.66
2023-02-14T04:36:31.822Z,99428.89
2023-02-14T04:39:03.643Z,99431.59
2023-02-14T04:41:32.063Z,99437.67
2023-02-14T04:44:00.605Z,99440.73
2023-02-14T04:46:29.603Z,99441.48
2023-02-14T04:48:58.109Z,99435.36
2023-02-14T04:51:27.643Z,99458.97
2023-02-14T04:53:56.233Z,99458.75
2023-02-14T04:56:26.313Z,99457.58
2023-02-14T04:58:55.066Z,99467.66
2023-02-14T05:01:23.345Z,99471.80
2023-02-14T05:03:52.051Z,99462.69
2023-02-14T05:06:20.718Z,99475.21
2023-02-14T05:08:49.145Z,99471.00
2023-02-14T05:11:17.790Z,99472.15
2023-02-14T05:13:46.155Z,99482.00
2023-02-14T05:16:14.704Z,99478.75
2023-02-14T05:18:44.863Z,99492.59
2023-02-14T05:21:14.367Z,99485.13
2023-02-14T05:23:42.955Z,99490.92
2023-02-14T05:26:11.321Z,99491.63
2023-02-14T05:28:41.241Z,99479.87
2023-02-14T05:31:10.122Z,99487.71
2023-02-14T05:33:39.866Z,99482.66
2023-02-14T05:36:08.631Z,99490.15
2023-02-14T05:38:37.435Z,99490.60
2023-02-14T05:41:06.202Z,99495.21
2023-02-14T05:43:34.788Z,99499.13
2023-02-14T05:46:06.358Z,99491.86
2023-02-14T05:48:35.656Z,99493.77
2023-02-14T05:51:06.064Z,99492.48
2023-02-14T05:53:34.875Z,99498.12
2023-02-14T05:56:03.451Z,99502.32
2023-02-14T05:58:32.326Z,99498.02
2023-02-14T06:01:01.373Z,99484.44
2023-02-14T06:03:30.430Z,99479.00
2023-02-14T06:05:58.838Z,99491.39
2023-02-14T06:08:28.928Z,99489.23
2023-02-14T06:10:57.737Z,99497.90
2023-02-14T06:13:30.177Z,99489.63
2023-02-14T06:15:58.784Z,99500.23
2023-02-14T06:18:29.803Z,99496.19
2023-02-14T06:20:58.859Z,99504.57
2023-02-14T06:23:27.684Z,99503.64
2023-02-14T06:25:56.371Z,99499.95
2023-02-14T06:28:25.261Z,99506.40
2023-02-14T06:30:54.016Z,99499.34
2023-02-14T06:33:22.527Z,99501.24
2023-02-14T06:35:54.174Z,99505.97
2023-02-14T06:38:22.361Z,99508.65
2023-02-14T06:40:53.606Z,99515.80
2023-02-14T06:43:22.289Z,99505.75
2023-02-14T06:45:50.794Z,99521.17
2023-02-14T06:48:20.169Z,99513.85
2023-02-14T06:50:48.549Z,99515.69
2023-02-14T06:53:17.441Z,99508.86
2023-02-14T06:55:46.127Z,99517.36
2023-02-14T06:58:15.552Z,99514.46
2023-02-14T07:00:44.212Z,99524.73
2023-02-14T07:03:14.229Z,99507.11
2023-02-14T07:05:45.255Z,99531.30
2023-02-14T07:08:18.876Z,99518.52
2023-02-14T07:10:47.664Z,99530.88
2023-02-14T07:13:15.973Z,99535.51
2023-02-14T07:15:44.563Z,99536.83
2023-02-14T07:18:13.000Z,99539.13
2023-02-14T07:20:42.010Z,99543.82
2023-02-14T07:23:11.086Z,99551.39
2023-02-14T07:25:40.876Z,99551.36
2023-02-14T07:28:09.190Z,99541.14
2023-02-14T07:30:37.782Z,99533.89
2023-02-14T07:33:06.242Z,99547.16
2023-02-14T07:35:35.850Z,99534.73
2023-02-14T07:38:04.119Z,99543.17
2023-02-14T07:40:33.250Z,99547.19
2023-02-14T07:43:01.694Z,99539.64
2023-02-14T07:45:30.323Z,99546.89
2023-02-14T07:48:02.298Z,99550.20
2023-02-14T07:50:31.345Z,99549.80
2023-02-14T07:52:59.814Z,99555.85
2023-02-14T07:55:28.505Z,99554.09
2023-02-14T07:57:57.504Z,99554.55
2023-02-14T08:00:26.177Z,99550.12
2023-02-14T08:02:56.142Z,99541.60
2023-02-14T08:05:24.514Z,99547.28
2023-02-14T08:07:52.989Z,99553.19
2023-02-14T08:10:21.953Z,99553.65
2023-02-14T08:12:59.564Z,99550.01
2023-02-14T08:15:48.343Z,99549.07
2023-02-14T08:18:20.768Z,99548.56
2023-02-14T08:20:50.169Z,99553.08
2023-02-14T08:23:19.669Z,99554.37
2023-02-14T08:25:48.975Z,99556.77
2023-02-14T08:28:18.082Z,99557.14
2023-02-14T08:30:46.475Z,99558.23
2023-02-14T08:33:15.028Z,99553.15
2023-02-14T08:35:43.488Z,99555.18
2023-02-14T08:38:12.004Z,99548.16
2023-02-14T08:40:41.905Z,99545.33
2023-02-14T08:43:10.530Z,99538.99
2023-02-14T08:45:39.137Z,99546.39
2023-02-14T08:48:09.934Z,99546.95
2023-02-14T08:50:39.106Z,99544.52
2023-02-14T08:53:12.237Z,99547.58
2023-02-14T08:55:40.688Z,99549.86
2023-02-14T08:58:10.706Z,99556.47
2023-02-14T09:00:39.538Z,99554.03
2023-02-14T09:03:12.461Z,99553.64
2023-02-14T09:05:40.946Z,99560.48
2023-02-14T09:08:09.612Z,99567.96
2023-02-14T09:10:43.854Z,99555.24
2023-02-14T09:13:13.563Z,99563.91
2023-02-14T09:15:41.966Z,99560.50
2023-02-14T09:18:11.640Z,99574.04
2023-02-14T09:20:40.235Z,99571.51
2023-02-14T09:23:08.385Z,99563.19
2023-02-14T09:25:37.602Z,99565.91
2023-02-14T09:28:06.284Z,99574.17
2023-02-14T09:30:35.141Z,99574.76
2023-02-14T09:33:05.631Z,99579.27
2023-02-14T09:35:34.333Z,99574.42
2023-02-14T09:38:19.976Z,99571.82
2023-02-14T09:40:50.628Z,99575.95
2023-02-14T09:43:58.836Z,99570.95
2023-02-14T09:46:29.246Z,99568.24
2023-02-14T09:48:57.747Z,99569.70
2023-02-14T09:51:27.860Z,99573.14
2023-02-14T09:54:01.446Z,99578.21
2023-02-14T09:56:51.831Z,99572.39
2023-02-14T09:59:38.079Z,99574.52
2023-02-14T10:02:07.059Z,99562.30
2023-02-14T10:04:39.920Z,99559.52
2023-02-14T10:07:19.347Z,99559.77
2023-02-14T10:09:50.700Z,99561.38
2023-02-14T10:12:23.820Z,99562.26
2023-02-14T10:14:53.708Z,99557.66
2023-02-14T10:17:36.621Z,99546.77
2023-02-14T10:20:11.851Z,99542.63
2023-02-14T10:22:50.378Z,99536.72
2023-02-14T10:25:28.888Z,99537.41
2023-02-14T10:27:58.683Z,99520.75
2023-02-14T10:30:27.708Z,99513.84
2023-02-14T10:33:07.856Z,99523.71
2023-02-14T10:35:55.792Z,99524.74
2023-02-14T10:38:51.517Z,99517.11
2023-02-14T10:41:23.165Z,99523.02
2023-02-14T10:43:57.977Z,99508.89
2023-02-14T10:46:44.906Z,99512.70
2023-02-14T10:49:18.742Z,99508.42
2023-02-14T10:51:51.499Z,99519.73
2023-02-14T10:54:26.321Z,99520.60
2023-02-14T10:57:03.584Z,99501.92
2023-02-14T10:59:51.245Z,99504.23
2023-02-14T11:02:23.502Z,99505.84
2023-02-14T11:04:53.940Z,99505.90
2023-02-14T11:07:22.531Z,99506.19
2023-02-14T11:09:53.352Z,99484.60
2023-02-14T11:12:51.984Z,99486.99
2023-02-14T11:15:27.767Z,99498.26
2023-02-14T11:18:32.112Z,99497.17
2023-02-14T11:21:06.533Z,99498.48
2023-02-14T11:23:46.489Z,99498.33
2023-02-14T11:26:17.326Z,99486.67
2023-02-14T11:28:52.451Z,99481.93
2023-02-14T11:31:27.000Z,99493.05
2023-02-14T11:33:55.969Z,99473.39
2023-02-14T11:36:24.380Z,99468.95
2023-02-14T11:39:19.261Z,99471.95
2023-02-14T11:41:56.452Z,99475.94
2023-02-14T11:44:27.245Z,99485.84
2023-02-14T11:46:57.283Z,99475.20
2023-02-14T11:49:33.059Z,99485.70
2023-02-14T11:52:10.362Z,99477.81
2023-02-14T11:54:41.159Z,99480.54
2023-02-14T11:57:22.340Z,99469.30
2023-02-14T11:59:53.469Z,99478.36
2023-02-14T12:02:47.442Z,99466.71
2023-02-14T12:05:18.853Z,99462.59
2023-02-14T12:07:51.695Z,99464.02
2023-02-14T12:10:32.067Z,99468.05
2023-02-14T12:13:04.355Z,99462.45
2023-02-14T12:15:44.325Z,99469.92
2023-02-14T12:18:48.392Z,99480.59
2023-02-14T12:21:48.446Z,99463.95
2023-02-14T12:24:29.713Z,99449.16
2023-02-14T12:27:30.732Z,99453.95
2023-02-14T12:30:00.919Z,99468.10
2023-02-14T12:32:30.788Z,99461.56
2023-02-14T12:35:03.353Z,99459.77
2023-02-14T12:37:41.445Z,99455.45
2023-02-14T12:40:22.223Z,99457.66
2023-02-14T12:50:33.765Z,99446.59
2023-02-14T12:53:09.462Z,99436.92
2023-02-14T12:55:53.650Z,99435.00
2023-02-14T12:58:31.773Z,99437.52
2023-02-14T13:01:09.555Z,99435.38
2023-02-14T13:03:57.396Z,99448.09
2023-02-14T13:06:34.081Z,99440.87
2023-02-14T13:09:05.418Z,99434.44
2023-02-14T13:14:39.960Z,99432.93
2023-02-14T13:17:35.097Z,99436.31
2023-02-14T13:20:22.286Z,99419.23
2023-02-14T13:22:50.859Z,99423.58
2023-02-14T13:25:34.081Z,99414.45
2023-02-14T13:28:05.138Z,99441.30
2023-02-14T13:30:38.793Z,99440.48
2023-02-14T13:33:08.952Z,99448.78
2023-02-14T13:35:38.417Z,99450.58
2023-02-14T13:38:08.780Z,99440.81
2023-02-14T13:40:38.598Z,99453.27
2023-02-14T13:43:07.189Z,99437.06
2023-02-14T13:45:40.881Z,99442.48
2023-02-14T13:48:26.572Z,99448.39
2023-02-14T13:50:56.168Z,99450.83
2023-02-14T13:53:46.204Z,99450.64
2023-02-14T13:56:17.714Z,99457.54
2023-02-14T13:59:05.862Z,99454.48
2023-02-14T14:01:50.400Z,99460.24
2023-02-14T14:04:28.219Z,99467.92
2023-02-14T14:07:03.561Z,99454.08
2023-02-14T14:09:43.940Z,99447.58
2023-02-14T14:12:28.504Z,99453.90
2023-02-14T14:15:06.723Z,99456.17
2023-02-14T14:17:37.305Z,99453.59
2023-02-14T14:20:26.568Z,99442.75
2023-02-14T14:22:56.492Z,99453.55
2023-02-14T14:25:41.858Z,99446.74
2023-02-14T14:28:17.557Z,99453.89
2023-02-14T14:30:46.557Z,99450.98
2023-02-14T14:33:34.788Z,99460.70
2023-02-14T14:36:07.678Z,99462.42
2023-02-14T14:38:46.067Z,99453.66
2023-02-14T14:41:14.434Z,99454.22
2023-02-14T14:43:42.948Z,99466.17
2023-02-14T14:46:12.258Z,99477.20
2023-02-14T14:48:49.429Z,99479.30
2023-02-14T14:51:29.177Z,99482.10
2023-02-14T14:53:57.410Z,99482.77
2023-02-14T14:56:27.610Z,99484.64
2023-02-14T14:58:55.825Z,99487.45
2023-02-14T15:01:38.423Z,99483.44
2023-02-14T15:04:34.032Z,99493.38
2023-02-14T15:07:28.120Z,99492.48
2023-02-14T15:09:56.459Z,99496.92
2023-02-14T15:12:43.923Z,99494.39
2023-02-14T15:15:13.860Z,99496.30
2023-02-14T15:17:43.253Z,99499.89
2023-02-14T15:20:17.967Z,99507.11
2023-02-14T15:22:48.823Z,99509.37
2023-02-14T15:25:19.581Z,99512.04
2023-02-14T15:27:48.447Z,99520.83
2023-02-14T15:30:20.515Z,99527.05
2023-02-14T15:32:49.905Z,99534.78
2023-02-14T15:35:23.709Z,99540.64
2023-02-14T15:37:52.389Z,99542.27
2023-02-14T15:40:26.272Z,99546.86
2023-02-14T15:42:59.185Z,99552.88
2023-02-14T15:45:28.171Z,99553.73
2023-02-14T15:48:20.750Z,99556.13
2023-02-14T15:50:53.091Z,99561.45
2023-02-14T15:53:41.474Z,99567.77
2023-02-14T15:56:20.315Z,99575.48
2023-02-14T15:58:49.860Z,99577.46
2023-02-14T16:01:21.891Z,99584.27
2023-02-14T16:03:52.558Z,99591.85
2023-02-14T16:07:02.736Z,99589.02
2023-02-14T16:09:34.342Z,99592.75
2023-02-14T16:12:21.431Z,99603.11
2023-02-14T16:15:01.501Z,99607.55
2023-02-14T16:17:33.685Z,99615.84
2023-02-14T16:20:24.018Z,99610.88
2023-02-14T16:22:52.377Z,99625.55
2023-02-14T16:25:21.923Z,99620.10
2023-02-14T16:27:51.581Z,99630.30
2023-02-14T16:30:20.806Z,99637.64
2023-02-14T16:32:50.839Z,99637.55
2023-02-14T16:35:20.436Z,99642.98
2023-02-14T16:37:48.888Z,99646.70
2023-02-14T16:40:17.882Z,99643.98
2023-02-14T16:42:46.480Z,99649.38
2023-02-14T16:45:16.782Z,99657.14
2023-02-14T16:47:48.861Z,99659.48
2023-02-14T16:50:18.048Z,99661.80
2023-02-14T16:52:48.063Z,99664.71
2023-02-14T16:55:17.055Z,99669.26
2023-02-14T16:57:46.890Z,99675.15
2023-02-14T17:00:15.976Z,99679.66
2023-02-14T17:02:44.613Z,99679.78
2023-02-14T17:05:13.648Z,99686.25
2023-02-14T17:07:43.043Z,99688.27
2023-02-14T17:10:18.592Z,99689.65
2023-02-14T17:12:47.511Z,99695.50
2023-02-14T17:15:20.678Z,99702.65
2023-02-14T17:17:49.569Z,99706.20
2023-02-14T17:20:22.982Z,99708.73
2023-02-14T17:22:55.867Z,99710.21
2023-02-14T17:25:24.124Z,99713.30
2023-02-14T17:27:52.702Z,99716.61
2023-02-14T17:30:21.549Z,99715.42
2023-02-14T17:32:50.174Z,99717.63
2023-02-14T17:35:18.911Z,99721.83
2023-02-14T17:37:47.650Z,99727.17
2023-02-14T17:40:17.577Z,99725.56
2023-02-14T17:42:46.357Z,99729.80
2023-02-14T17:45:15.549Z,99733.45
2023-02-14T17:47:45.468Z,99736.50
2023-02-14T17:50:15.001Z,99742.61
2023-02-14T17:52:44.269Z,99746.26
2023-02-14T17:55:13.360Z,99747.52
2023-02-14T17:57:41.975Z,99757.77
2023-02-14T18:00:18.613Z,99760.52
2023-02-14T18:02:47.211Z,99763.23
2023-02-14T18:05:17.425Z,99767.34
2023-02-14T18:07:46.110Z,99767.15
2023-02-14T18:10:15.924Z,99764.65
2023-02-14T18:12:44.871Z,99762.54
2023-02-14T18:15:13.609Z,99762.53
2023-02-14T18:17:42.290Z,99766.89
2023-02-14T18:20:11.486Z,99772.60
2023-02-14T18:22:39.760Z,99769.65
2023-02-14T18:25:16.231Z,99772.36
2023-02-14T18:27:44.920Z,99770.52
2023-02-14T18:30:14.174Z,99769.60
2023-02-14T18:32:42.920Z,99770.34
2023-02-14T18:35:13.731Z,99772.44
2023-02-14T18:37:48.072Z,99775.05
2023-02-14T18:40:24.515Z,99776.06
2023-02-14T18:42:54.507Z,99776.86
2023-02-14T18:45:22.883Z,99776.96
2023-02-14T18:47:52.838Z,99777.32
2023-02-14T18:50:21.515Z,99783.02
2023-02-14T18:52:50.302Z,99783.31
2023-02-14T18:55:25.132Z,99787.37
2023-02-14T18:57:56.476Z,99788.58
2023-02-14T19:00:26.316Z,99792.65
2023-02-14T19:02:58.802Z,99798.98
2023-02-14T19:05:31.764Z,99795.02
2023-02-14T19:08:00.663Z,99790.27
2023-02-14T19:10:28.913Z,99791.75
2023-02-14T19:12:57.511Z,99793.77
2023-02-14T19:15:25.884Z,99797.25
2023-02-14T19:18:00.408Z,99799.02
2023-02-14T19:20:32.088Z,99797.95
2023-02-14T19:23:00.657Z,99801.36
2023-02-14T19:25:32.657Z,99802.61
2023-02-14T19:28:00.902Z,99805.73
2023-02-14T19:30:30.532Z,99807.23
2023-02-14T19:32:59.893Z,99808.06
2023-02-14T19:35:28.178Z,99811.55
2023-02-14T19:37:56.642Z,99816.38
2023-02-14T19:40:25.131Z,99823.00
2023-02-14T19:42:53.715Z,99826.90
2023-02-14T19:45:23.212Z,99830.96
2023-02-14T19:47:52.205Z,99832.05
2023-02-14T19:50:22.340Z,99836.83
2023-02-14T19:52:51.018Z,99833.50
2023-02-14T19:55:22.982Z,99838.34
2023-02-14T19:57:51.463Z,99837.26
2023-02-14T20:00:21.281Z,99840.81
2023-02-14T20:02:50.398Z,99840.55
2023-02-14T20:05:19.710Z,99845.02
2023-02-14T20:07:54.615Z,99849.38
2023-02-14T20:10:27.584Z,99842.45
2023-02-14T20:12:56.185Z,99845.89
2023-02-14T20:15:26.582Z,99847.73
2023-02-14T20:17:57.320Z,99847.10
2023-02-14T20:20:25.797Z,99845.86
2023-02-14T20:22:57.455Z,99844.05
2023-02-14T20:25:26.444Z,99849.70
2023-02-14T20:27:54.955Z,99848.64
2023-02-14T20:30:23.597Z,99847.23
2023-02-14T20:32:54.319Z,99847.71
2023-02-14T20:35:22.850Z,99847.99
2023-02-14T20:37:52.736Z,99849.95
2023-02-14T20:40:21.126Z,99851.58
2023-02-14T20:42:49.907Z,99849.55
2023-02-14T20:45:18.279Z,99852.17
2023-02-14T20:47:49.117Z,99851.70
2023-02-14T20:50:18.318Z,99852.39
2023-02-14T20:52:46.695Z,99853.50
2023-02-14T20:55:15.333Z,99854.73
2023-02-14T20:57:43.865Z,99858.27
2023-02-14T21:00:12.958Z,99857.57
2023-02-14T21:02:41.581Z,99854.33
2023-02-14T21:05:10.126Z,99857.40
2023-02-14T21:07:38.610Z,99852.88
2023-02-14T21:10:07.597Z,99857.34
2023-02-14T21:12:38.731Z,99859.84
2023-02-14T21:15:10.907Z,99864.55
2023-02-14T21:17:39.901Z,99866.23
2023-02-14T21:20:10.739Z,99867.02
2023-02-14T21:22:41.163Z,99868.36
2023-02-14T21:25:09.583Z,99872.36
2023-02-14T21:27:39.355Z,99870.25
2023-02-14T21:30:09.027Z,99869.87
2023-02-14T21:32:38.073Z,99871.92
2023-02-14T21:35:06.951Z,99870.92
2023-02-14T21:37:35.739Z,99868.13
2023-02-14T21:40:04.809Z,99873.40
2023-02-14T21:42:33.108Z,99875.64
2023-02-14T21:45:20.135Z,99878.19
2023-02-14T21:48:08.368Z,99879.19
2023-02-14T21:50:37.902Z,99883.73
2023-02-14T21:53:07.677Z,99880.46
2023-02-14T21:55:37.289Z,99882.55
2023-02-14T21:58:05.465Z,99880.98
2023-02-14T22:00:34.862Z,99881.29
2023-02-14T22:03:03.092Z,99885.98
2023-02-14T22:05:32.846Z,99886.17
2023-02-14T22:08:01.334Z,99885.71
2023-02-14T22:10:30.040Z,99888.02
2023-02-14T22:12:58.391Z,99892.88
2023-02-14T22:15:32.399Z,99892.91
2023-02-14T22:18:01.089Z,99896.04
2023-02-14T22:20:30.082Z,99897.98
2023-02-14T22:22:58.772Z,99895.17
2023-02-14T22:25:26.953Z,99900.96
2023-02-14T22:27:55.418Z,99902.98
2023-02-14T22:30:25.896Z,99901.45
2023-02-14T22:32:54.965Z,99903.98
2023-02-14T22:35:23.632Z,99904.39
2023-02-14T22:37:52.521Z,99908.34
2023-02-14T22:40:21.410Z,99906.88
2023-02-14T22:42:50.291Z,99907.58
2023-02-14T22:45:18.499Z,99906.73
2023-02-14T22:47:46.746Z,99909.80
2023-02-14T22:50:15.025Z,99916.93
2023-02-14T22:52:44.561Z,99913.15
2023-02-14T22:55:13.013Z,99912.65
2023-02-14T22:57:41.793Z,99913.38
2023-02-14T23:00:12.011Z,99907.48
2023-02-14T23:02:41.350Z,99909.91
2023-02-14T23:05:10.045Z,99910.40
2023-02-14T23:07:38.585Z,99910.73
2023-02-14T23:10:08.297Z,99911.71
2023-02-14T23:12:58.799Z,99914.14
2023-02-14T23:15:53.537Z,99917.60
2023-02-14T23:18:40.807Z,99920.12
2023-02-14T23:21:32.225Z,99916.17
2023-02-14T23:24:00.422Z,99915.57
2023-02-14T23:26:28.806Z,99918.58
2023-02-14T23:28:58.120Z,99920.80
2023-02-14T23:31:26.527Z,99925.56
2023-02-14T23:33:55.336Z,99925.84
2023-02-14T23:36:23.818Z,99932.30
2023-02-14T23:38:52.407Z,99928.83
2023-02-14T23:41:39.939Z,99935.98
2023-02-14T23:44:08.418Z,99936.05
2023-02-14T23:46:37.103Z,99935.28
2023-02-14T23:49:06.809Z,99934.95
2023-02-14T23:51:36.583Z,99937.53
2023-02-14T23:54:04.999Z,99934.67
2023-02-14T23:56:35.633Z,99937.13
2023-02-14T23:59:05.167Z,99936.77
